Pagrindinis puslapis
METAR-TAF:

METAR-TAF

Oro uostai :

Zinderis, Nigeris

platuma: 13-47N, ilguma: 008-59E, Aukštis: 452 m

Dabartinis oras

Ataskaita buvo paskelbta 23 minutes, ne 03:00 UTC
Vėjas 4 kt iš Šiaurės Rytų
Temperatūra 15°C
Drėgmė 20%
Slėgis 1016 hPa
Matomumas: 8000 m

METAR: DRZR 280300Z 04004KT 8000 NSC 15/M08 Q1016

Laikas: 04:23 (03:23 UTC)

Prognozė

Ataskaita buvo paskelbta 4 valandos ir 23 minutes, ne 23:00 UTC
Prognozė galioja nuo 28 metu 00 UTC su 28 metu 24 UTC
Vėjas 5 kt iš Šiaurės/Šiaurės Rytų
Matomumas: 6000 m
Tapsmas
nuo 28 metu 06 UTC su 28 metu 08 UTC
Matomumas: 3000 m
dulkės
Tapsmas
nuo 28 metu 08 UTC su 28 metu 12 UTC
Vėjas 10 kt iš Rytų
Tapsmas
nuo 28 metu 12 UTC su 28 metu 14 UTC
Matomumas: 6000 m

TAF: DRZR 272300Z 2800/2824 02005KT 6000 NSC BECMG 2806/2808 3000 DU BECMG 2808/2812 08010KT BECMG 2812/2814 6000 NSW

Orai ataskaitas ir orų prognozės (METAR, TAF).

turimą stotys yra geltonos ir raudonos taškus žemėlapyje.

Perkelti pele per norėdami pamatyti stoties vardą.

Tada spustelėkite, norėdami matyti oro stebėjimo ir prognozės.

Norėdami pakeisti žemėlapį: spustelėkite ant žalios mygtukų su juodo kryžiaus žemyn,; žalią mygtuką su brūkšneliu, jei norite nutolinti; arba žalių rodyklių gretimoms žemėlapius.


METAR-TAF: